sensor_id;sensor_type;location;lat;lon;timestamp;temperature;humidity
1602;DHT22;794;48.592;9.634;2024-02-23T00:01:59;5.50;1.00
1602;DHT22;794;48.592;9.634;2024-02-23T00:04:25;7.00;1.00
1602;DHT22;794;48.592;9.634;2024-02-23T00:06:54;5.70;1.00
1602;DHT22;794;48.592;9.634;2024-02-23T00:09:20;5.40;1.00
1602;DHT22;794;48.592;9.634;2024-02-23T00:14:15;5.20;1.00
1602;DHT22;794;48.592;9.634;2024-02-23T00:19:11;5.30;1.00
1602;DHT22;794;48.592;9.634;2024-02-23T00:21:38;6.20;1.00
1602;DHT22;794;48.592;9.634;2024-02-23T00:24:07;5.30;1.00
1602;DHT22;794;48.592;9.634;2024-02-23T00:26:34;4.90;1.00
1602;DHT22;794;48.592;9.634;2024-02-23T00:29:02;5.20;1.00
1602;DHT22;794;48.592;9.634;2024-02-23T00:31:29;5.20;1.00
1602;DHT22;794;48.592;9.634;2024-02-23T00:33:56;5.30;1.00
1602;DHT22;794;48.592;9.634;2024-02-23T00:41:21;5.30;1.00
1602;DHT22;794;48.592;9.634;2024-02-23T00:46:15;5.30;1.00
1602;DHT22;794;48.592;9.634;2024-02-23T00:48:42;5.20;1.00
1602;DHT22;794;48.592;9.634;2024-02-23T00:56:04;5.20;1.00
1602;DHT22;794;48.592;9.634;2024-02-23T00:58:32;5.10;1.00
1602;DHT22;794;48.592;9.634;2024-02-23T01:00:59;4.90;1.00
1602;DHT22;794;48.592;9.634;2024-02-23T01:03:26;5.40;1.00
1602;DHT22;794;48.592;9.634;2024-02-23T01:05:53;4.90;1.00
1602;DHT22;794;48.592;9.634;2024-02-23T01:08:20;5.20;1.00
1602;DHT22;794;48.592;9.634;2024-02-23T01:10:47;5.20;1.00
1602;DHT22;794;48.592;9.634;2024-02-23T01:15:42;5.30;1.00
1602;DHT22;794;48.592;9.634;2024-02-23T01:23:04;5.10;1.00
1602;DHT22;794;48.592;9.634;2024-02-23T01:25:31;5.40;1.00
1602;DHT22;794;48.592;9.634;2024-02-23T01:28:00;5.30;1.00
1602;DHT22;794;48.592;9.634;2024-02-23T01:32:55;5.20;1.00
1602;DHT22;794;48.592;9.634;2024-02-23T01:37:50;5.10;1.00
1602;DHT22;794;48.592;9.634;2024-02-23T01:40:17;5.10;1.00
1602;DHT22;794;48.592;9.634;2024-02-23T01:42:45;4.90;1.00
1602;DHT22;794;48.592;9.634;2024-02-23T01:45:12;5.00;1.00
1602;DHT22;794;48.592;9.634;2024-02-23T01:50:09;5.30;1.00
1602;DHT22;794;48.592;9.634;2024-02-23T01:52:38;5.00;1.00
1602;DHT22;794;48.592;9.634;2024-02-23T01:55:06;5.80;1.00
1602;DHT22;794;48.592;9.634;2024-02-23T01:57:33;4.80;1.00
1602;DHT22;794;48.592;9.634;2024-02-23T02:00:00;5.20;1.00
1602;DHT22;794;48.592;9.634;2024-02-23T02:02:27;5.30;1.00
1602;DHT22;794;48.592;9.634;2024-02-23T02:04:54;5.30;1.00
1602;DHT22;794;48.592;9.634;2024-02-23T02:07:22;5.30;1.00
1602;DHT22;794;48.592;9.634;2024-02-23T02:09:50;5.30;1.00
1602;DHT22;794;48.592;9.634;2024-02-23T02:12:26;5.30;1.00
1602;DHT22;794;48.592;9.634;2024-02-23T02:14:53;5.40;1.00
1602;DHT22;794;48.592;9.634;2024-02-23T02:17:21;5.40;1.00
1602;DHT22;794;48.592;9.634;2024-02-23T02:19:48;5.30;1.00
1602;DHT22;794;48.592;9.634;2024-02-23T02:22:15;5.30;1.00
1602;DHT22;794;48.592;9.634;2024-02-23T02:24:43;5.70;1.00
1602;DHT22;794;48.592;9.634;2024-02-23T02:27:12;5.30;1.00
1602;DHT22;794;48.592;9.634;2024-02-23T02:29:39;5.30;1.00
1602;DHT22;794;48.592;9.634;2024-02-23T02:32:06;5.20;1.00
1602;DHT22;794;48.592;9.634;2024-02-23T02:34:34;5.10;1.00
1602;DHT22;794;48.592;9.634;2024-02-23T02:37:01;3.40;1.00
1602;DHT22;794;48.592;9.634;2024-02-23T02:39:28;5.30;1.00
1602;DHT22;794;48.592;9.634;2024-02-23T02:41:56;5.30;1.00
1602;DHT22;794;48.592;9.634;2024-02-23T02:46:52;5.20;1.00
1602;DHT22;794;48.592;9.634;2024-02-23T02:49:19;5.30;1.00
1602;DHT22;794;48.592;9.634;2024-02-23T02:54:13;5.60;1.00
1602;DHT22;794;48.592;9.634;2024-02-23T02:56:42;5.50;1.00
1602;DHT22;794;48.592;9.634;2024-02-23T02:59:10;4.20;1.00
1602;DHT22;794;48.592;9.634;2024-02-23T03:01:37;5.30;1.00
1602;DHT22;794;48.592;9.634;2024-02-23T03:04:04;5.00;1.00
1602;DHT22;794;48.592;9.634;2024-02-23T03:06:31;5.40;1.00
1602;DHT22;794;48.592;9.634;2024-02-23T03:08:58;5.50;1.00
1602;DHT22;794;48.592;9.634;2024-02-23T03:13:52;5.30;1.00
1602;DHT22;794;48.592;9.634;2024-02-23T03:16:21;5.40;1.00
1602;DHT22;794;48.592;9.634;2024-02-23T03:21:16;5.30;1.00
1602;DHT22;794;48.592;9.634;2024-02-23T03:23:43;5.30;1.00
1602;DHT22;794;48.592;9.634;2024-02-23T03:26:10;5.40;1.00
1602;DHT22;794;48.592;9.634;2024-02-23T03:33:33;5.40;1.00
1602;DHT22;794;48.592;9.634;2024-02-23T03:38:28;5.60;1.00
1602;DHT22;794;48.592;9.634;2024-02-23T03:43:22;5.60;1.00
1602;DHT22;794;48.592;9.634;2024-02-23T03:48:16;5.40;1.00
1602;DHT22;794;48.592;9.634;2024-02-23T03:50:45;5.60;1.00
1602;DHT22;794;48.592;9.634;2024-02-23T03:53:12;5.40;1.00
1602;DHT22;794;48.592;9.634;2024-02-23T03:58:07;5.60;1.00
1602;DHT22;794;48.592;9.634;2024-02-23T04:03:01;5.20;1.00
1602;DHT22;794;48.592;9.634;2024-02-23T04:05:27;5.40;1.00
1602;DHT22;794;48.592;9.634;2024-02-23T04:07:56;5.20;1.00
1602;DHT22;794;48.592;9.634;2024-02-23T04:10:23;5.50;1.00
1602;DHT22;794;48.592;9.634;2024-02-23T04:12:49;5.40;1.00
1602;DHT22;794;48.592;9.634;2024-02-23T04:15:16;5.50;1.00
1602;DHT22;794;48.592;9.634;2024-02-23T04:17:44;5.20;1.00
1602;DHT22;794;48.592;9.634;2024-02-23T04:20:11;5.20;1.00
1602;DHT22;794;48.592;9.634;2024-02-23T04:25:08;5.10;1.00
1602;DHT22;794;48.592;9.634;2024-02-23T04:27:35;5.20;1.00
1602;DHT22;794;48.592;9.634;2024-02-23T04:30:02;5.20;1.00
1602;DHT22;794;48.592;9.634;2024-02-23T04:32:29;5.10;1.00
1602;DHT22;794;48.592;9.634;2024-02-23T04:34:56;5.20;1.00
1602;DHT22;794;48.592;9.634;2024-02-23T04:37:23;5.20;1.00
1602;DHT22;794;48.592;9.634;2024-02-23T04:39:49;5.20;1.00
1602;DHT22;794;48.592;9.634;2024-02-23T04:42:17;5.20;1.00
1602;DHT22;794;48.592;9.634;2024-02-23T04:44:44;5.30;1.00
1602;DHT22;794;48.592;9.634;2024-02-23T04:47:11;5.10;1.00
1602;DHT22;794;48.592;9.634;2024-02-23T04:49:38;5.10;1.00
1602;DHT22;794;48.592;9.634;2024-02-23T04:52:05;4.80;1.00
1602;DHT22;794;48.592;9.634;2024-02-23T04:54:33;4.70;1.00
1602;DHT22;794;48.592;9.634;2024-02-23T04:59:29;4.90;1.00
1602;DHT22;794;48.592;9.634;2024-02-23T05:04:25;4.90;1.00
1602;DHT22;794;48.592;9.634;2024-02-23T05:06:52;4.50;1.00
1602;DHT22;794;48.592;9.634;2024-02-23T05:09:19;4.60;1.00
1602;DHT22;794;48.592;9.634;2024-02-23T05:11:47;4.90;1.00
1602;DHT22;794;48.592;9.634;2024-02-23T05:14:14;4.80;1.00
1602;DHT22;794;48.592;9.634;2024-02-23T05:16:42;4.80;1.00
1602;DHT22;794;48.592;9.634;2024-02-23T05:19:09;4.80;1.00
1602;DHT22;794;48.592;9.634;2024-02-23T05:21:36;5.00;1.00
1602;DHT22;794;48.592;9.634;2024-02-23T05:24:03;4.90;1.00
1602;DHT22;794;48.592;9.634;2024-02-23T05:28:58;4.70;1.00
1602;DHT22;794;48.592;9.634;2024-02-23T05:31:46;5.00;1.00
1602;DHT22;794;48.592;9.634;2024-02-23T05:34:13;4.90;1.00
1602;DHT22;794;48.592;9.634;2024-02-23T05:36:40;4.70;1.00
1602;DHT22;794;48.592;9.634;2024-02-23T05:39:25;5.00;1.00
1602;DHT22;794;48.592;9.634;2024-02-23T05:41:52;4.60;1.00
1602;DHT22;794;48.592;9.634;2024-02-23T05:44:18;5.20;1.00
1602;DHT22;794;48.592;9.634;2024-02-23T05:46:49;4.70;1.00
1602;DHT22;794;48.592;9.634;2024-02-23T05:49:16;4.70;1.00
1602;DHT22;794;48.592;9.634;2024-02-23T05:51:42;5.00;1.00
1602;DHT22;794;48.592;9.634;2024-02-23T05:54:10;4.50;1.00
1602;DHT22;794;48.592;9.634;2024-02-23T05:59:04;4.70;1.00
1602;DHT22;794;48.592;9.634;2024-02-23T06:01:32;4.60;1.00
1602;DHT22;794;48.592;9.634;2024-02-23T06:04:00;4.40;1.00
1602;DHT22;794;48.592;9.634;2024-02-23T06:06:28;4.50;1.00
1602;DHT22;794;48.592;9.634;2024-02-23T06:08:55;4.40;1.00
1602;DHT22;794;48.592;9.634;2024-02-23T06:11:22;4.50;1.00
1602;DHT22;794;48.592;9.634;2024-02-23T06:13:48;4.50;1.00
1602;DHT22;794;48.592;9.634;2024-02-23T06:16:15;4.40;1.00
1602;DHT22;794;48.592;9.634;2024-02-23T06:18:42;4.70;1.00
1602;DHT22;794;48.592;9.634;2024-02-23T06:21:15;4.80;1.00
1602;DHT22;794;48.592;9.634;2024-02-23T06:23:43;4.60;1.00
1602;DHT22;794;48.592;9.634;2024-02-23T06:28:38;4.20;1.00
1602;DHT22;794;48.592;9.634;2024-02-23T06:31:07;4.30;1.00
1602;DHT22;794;48.592;9.634;2024-02-23T06:33:34;4.40;1.00
1602;DHT22;794;48.592;9.634;2024-02-23T06:36:01;4.30;1.00
1602;DHT22;794;48.592;9.634;2024-02-23T06:38:30;4.40;1.00
1602;DHT22;794;48.592;9.634;2024-02-23T06:48:19;4.20;1.00
1602;DHT22;794;48.592;9.634;2024-02-23T06:53:13;4.10;1.00
1602;DHT22;794;48.592;9.634;2024-02-23T06:55:42;4.00;1.00
1602;DHT22;794;48.592;9.634;2024-02-23T06:58:08;4.20;1.00
1602;DHT22;794;48.592;9.634;2024-02-23T07:00:36;5.00;1.00
1602;DHT22;794;48.592;9.634;2024-02-23T07:07:58;4.30;1.00
1602;DHT22;794;48.592;9.634;2024-02-23T07:10:25;4.90;1.00
1602;DHT22;794;48.592;9.634;2024-02-23T07:12:53;4.90;1.00
1602;DHT22;794;48.592;9.634;2024-02-23T07:18:18;4.50;1.00
1602;DHT22;794;48.592;9.634;2024-02-23T07:20:45;4.60;1.00
1602;DHT22;794;48.592;9.634;2024-02-23T07:23:12;4.70;1.00
1602;DHT22;794;48.592;9.634;2024-02-23T07:25:42;4.70;1.00
1602;DHT22;794;48.592;9.634;2024-02-23T07:28:10;4.50;1.00
1602;DHT22;794;48.592;9.634;2024-02-23T07:35:32;4.80;1.00
1602;DHT22;794;48.592;9.634;2024-02-23T07:37:58;5.20;1.00
1602;DHT22;794;48.592;9.634;2024-02-23T07:40:25;5.40;1.00
1602;DHT22;794;48.592;9.634;2024-02-23T07:42:52;4.70;1.00
1602;DHT22;794;48.592;9.634;2024-02-23T07:45:20;5.40;1.00
1602;DHT22;794;48.592;9.634;2024-02-23T07:47:47;5.50;1.00
1602;DHT22;794;48.592;9.634;2024-02-23T07:50:14;4.90;1.00
1602;DHT22;794;48.592;9.634;2024-02-23T07:52:41;5.20;1.00
1602;DHT22;794;48.592;9.634;2024-02-23T07:55:09;5.40;1.00
1602;DHT22;794;48.592;9.634;2024-02-23T08:00:06;5.30;1.00
1602;DHT22;794;48.592;9.634;2024-02-23T08:02:36;5.60;1.00
1602;DHT22;794;48.592;9.634;2024-02-23T08:07:30;5.60;1.00
1602;DHT22;794;48.592;9.634;2024-02-23T08:17:19;5.90;1.00
1602;DHT22;794;48.592;9.634;2024-02-23T08:19:48;5.90;1.00
1602;DHT22;794;48.592;9.634;2024-02-23T08:22:14;6.00;1.00
1602;DHT22;794;48.592;9.634;2024-02-23T08:29:37;6.00;1.00
1602;DHT22;794;48.592;9.634;2024-02-23T08:32:05;6.00;1.00
1602;DHT22;794;48.592;9.634;2024-02-23T08:37:01;6.00;1.00
1602;DHT22;794;48.592;9.634;2024-02-23T08:44:23;5.90;1.00
1602;DHT22;794;48.592;9.634;2024-02-23T08:46:50;6.00;1.00
1602;DHT22;794;48.592;9.634;2024-02-23T08:51:44;5.80;1.00
1602;DHT22;794;48.592;9.634;2024-02-23T08:54:12;5.80;1.00
1602;DHT22;794;48.592;9.634;2024-02-23T08:56:39;6.00;1.00
1602;DHT22;794;48.592;9.634;2024-02-23T09:06:30;5.80;1.00
1602;DHT22;794;48.592;9.634;2024-02-23T09:08:57;6.10;1.00
1602;DHT22;794;48.592;9.634;2024-02-23T09:11:25;6.20;1.00
1602;DHT22;794;48.592;9.634;2024-02-23T09:28:39;6.90;1.00
1602;DHT22;794;48.592;9.634;2024-02-23T09:43:29;7.20;1.00
1602;DHT22;794;48.592;9.634;2024-02-23T09:45:59;7.50;1.00
1602;DHT22;794;48.592;9.634;2024-02-23T09:50:55;7.20;1.00
1602;DHT22;794;48.592;9.634;2024-02-23T09:58:19;7.20;1.00
1602;DHT22;794;48.592;9.634;2024-02-23T10:00:47;7.00;1.00
1602;DHT22;794;48.592;9.634;2024-02-23T10:03:15;7.10;1.00
1602;DHT22;794;48.592;9.634;2024-02-23T10:08:11;7.30;1.00
1602;DHT22;794;48.592;9.634;2024-02-23T10:10:38;7.10;1.00
1602;DHT22;794;48.592;9.634;2024-02-23T10:20:29;7.50;1.00
1602;DHT22;794;48.592;9.634;2024-02-23T10:22:56;7.70;1.00
1602;DHT22;794;48.592;9.634;2024-02-23T10:35:14;7.80;1.00
1602;DHT22;794;48.592;9.634;2024-02-23T10:37:43;7.70;1.00
1602;DHT22;794;48.592;9.634;2024-02-23T10:40:12;7.80;1.00
1602;DHT22;794;48.592;9.634;2024-02-23T10:42:39;7.80;1.00
1602;DHT22;794;48.592;9.634;2024-02-23T10:47:36;8.10;1.00
1602;DHT22;794;48.592;9.634;2024-02-23T10:50:04;7.90;1.00
1602;DHT22;794;48.592;9.634;2024-02-23T10:52:32;7.90;1.00
1602;DHT22;794;48.592;9.634;2024-02-23T10:55:02;8.00;1.00
1602;DHT22;794;48.592;9.634;2024-02-23T10:59:59;7.40;1.00
1602;DHT22;794;48.592;9.634;2024-02-23T11:02:28;8.00;1.00
1602;DHT22;794;48.592;9.634;2024-02-23T11:04:58;8.30;1.00
1602;DHT22;794;48.592;9.634;2024-02-23T11:09:59;8.00;1.00
1602;DHT22;794;48.592;9.634;2024-02-23T11:12:29;8.30;1.00
1602;DHT22;794;48.592;9.634;2024-02-23T11:14:57;8.20;1.00
1602;DHT22;794;48.592;9.634;2024-02-23T11:17:27;7.10;1.00
1602;DHT22;794;48.592;9.634;2024-02-23T11:22:26;7.10;1.00
1602;DHT22;794;48.592;9.634;2024-02-23T11:24:59;7.40;1.00
1602;DHT22;794;48.592;9.634;2024-02-23T11:27:31;7.70;1.00
1602;DHT22;794;48.592;9.634;2024-02-23T11:30:02;7.90;1.00
1602;DHT22;794;48.592;9.634;2024-02-23T11:32:37;7.80;1.00
1602;DHT22;794;48.592;9.634;2024-02-23T11:35:07;7.80;1.00
1602;DHT22;794;48.592;9.634;2024-02-23T11:37:47;7.70;1.00
1602;DHT22;794;48.592;9.634;2024-02-23T11:42:43;8.20;1.00
1602;DHT22;794;48.592;9.634;2024-02-23T11:45:10;7.40;1.00
1602;DHT22;794;48.592;9.634;2024-02-23T11:47:37;7.40;1.00
1602;DHT22;794;48.592;9.634;2024-02-23T11:50:08;7.30;1.00
1602;DHT22;794;48.592;9.634;2024-02-23T11:52:35;7.40;1.00
1602;DHT22;794;48.592;9.634;2024-02-23T11:57:31;5.10;1.00
1602;DHT22;794;48.592;9.634;2024-02-23T12:00:01;6.80;1.00
1602;DHT22;794;48.592;9.634;2024-02-23T12:02:28;7.10;1.00
1602;DHT22;794;48.592;9.634;2024-02-23T12:04:55;7.20;1.00
1602;DHT22;794;48.592;9.634;2024-02-23T12:07:22;6.10;1.00
1602;DHT22;794;48.592;9.634;2024-02-23T12:09:50;7.30;1.00
1602;DHT22;794;48.592;9.634;2024-02-23T12:12:17;7.40;1.00
1602;DHT22;794;48.592;9.634;2024-02-23T12:17:14;7.60;1.00
1602;DHT22;794;48.592;9.634;2024-02-23T12:19:41;7.50;1.00
1602;DHT22;794;48.592;9.634;2024-02-23T12:22:10;7.80;1.00
1602;DHT22;794;48.592;9.634;2024-02-23T12:24:37;7.90;1.00
1602;DHT22;794;48.592;9.634;2024-02-23T12:29:31;9.00;1.00
1602;DHT22;794;48.592;9.634;2024-02-23T12:32:05;7.30;1.00
1602;DHT22;794;48.592;9.634;2024-02-23T12:34:34;7.90;1.00
1602;DHT22;794;48.592;9.634;2024-02-23T12:37:02;7.60;1.00
1602;DHT22;794;48.592;9.634;2024-02-23T12:44:25;7.90;1.00
1602;DHT22;794;48.592;9.634;2024-02-23T12:46:53;7.90;1.00
1602;DHT22;794;48.592;9.634;2024-02-23T12:51:48;7.80;1.00
1602;DHT22;794;48.592;9.634;2024-02-23T12:56:42;8.00;1.00
1602;DHT22;794;48.592;9.634;2024-02-23T13:01:37;7.70;1.00
1602;DHT22;794;48.592;9.634;2024-02-23T13:04:05;7.90;1.00
1602;DHT22;794;48.592;9.634;2024-02-23T13:06:36;7.80;1.00
1602;DHT22;794;48.592;9.634;2024-02-23T13:09:05;8.00;1.00
1602;DHT22;794;48.592;9.634;2024-02-23T13:23:50;7.80;1.00
1602;DHT22;794;48.592;9.634;2024-02-23T13:26:18;7.60;1.00
1602;DHT22;794;48.592;9.634;2024-02-23T13:31:12;7.60;1.00
1602;DHT22;794;48.592;9.634;2024-02-23T13:43:33;7.50;1.00
1602;DHT22;794;48.592;9.634;2024-02-23T13:48:29;7.30;1.00
1602;DHT22;794;48.592;9.634;2024-02-23T14:00:51;7.50;1.00
1602;DHT22;794;48.592;9.634;2024-02-23T14:18:05;7.60;1.00
1602;DHT22;794;48.592;9.634;2024-02-23T14:22:59;7.70;1.00
1602;DHT22;794;48.592;9.634;2024-02-23T14:30:21;7.50;1.00
1602;DHT22;794;48.592;9.634;2024-02-23T14:32:48;7.20;1.00
1602;DHT22;794;48.592;9.634;2024-02-23T14:35:16;7.20;1.00
1602;DHT22;794;48.592;9.634;2024-02-23T14:40:11;7.50;1.00
1602;DHT22;794;48.592;9.634;2024-02-23T14:45:07;7.60;1.00
1602;DHT22;794;48.592;9.634;2024-02-23T14:52:31;7.40;1.00
1602;DHT22;794;48.592;9.634;2024-02-23T14:57:25;7.50;1.00
1602;DHT22;794;48.592;9.634;2024-02-23T15:07:14;7.90;1.00
1602;DHT22;794;48.592;9.634;2024-02-23T15:09:43;7.60;1.00
1602;DHT22;794;48.592;9.634;2024-02-23T15:21:59;7.60;1.00
1602;DHT22;794;48.592;9.634;2024-02-23T15:24:26;7.60;1.00
1602;DHT22;794;48.592;9.634;2024-02-23T15:26:54;7.30;1.00
1602;DHT22;794;48.592;9.634;2024-02-23T15:31:48;7.40;1.00
1602;DHT22;794;48.592;9.634;2024-02-23T15:39:11;7.00;1.00
1602;DHT22;794;48.592;9.634;2024-02-23T15:44:07;6.80;1.00
1602;DHT22;794;48.592;9.634;2024-02-23T15:58:53;6.80;1.00
1602;DHT22;794;48.592;9.634;2024-02-23T16:01:21;6.70;1.00
1602;DHT22;794;48.592;9.634;2024-02-23T16:03:48;6.60;1.00
1602;DHT22;794;48.592;9.634;2024-02-23T16:08:43;7.00;1.00
1602;DHT22;794;48.592;9.634;2024-02-23T16:11:11;6.80;1.00
1602;DHT22;794;48.592;9.634;2024-02-23T16:13:39;6.60;1.00
1602;DHT22;794;48.592;9.634;2024-02-23T16:16:07;6.50;1.00
1602;DHT22;794;48.592;9.634;2024-02-23T16:18:36;6.40;1.00
1602;DHT22;794;48.592;9.634;2024-02-23T16:21:04;6.30;1.00
1602;DHT22;794;48.592;9.634;2024-02-23T16:23:31;6.40;1.00
1602;DHT22;794;48.592;9.634;2024-02-23T16:25:58;6.70;1.00
1602;DHT22;794;48.592;9.634;2024-02-23T16:35:48;6.30;1.00
1602;DHT22;794;48.592;9.634;2024-02-23T16:43:09;6.00;1.00
1602;DHT22;794;48.592;9.634;2024-02-23T16:48:04;6.10;1.00
1602;DHT22;794;48.592;9.634;2024-02-23T16:53:02;6.10;1.00
1602;DHT22;794;48.592;9.634;2024-02-23T17:10:16;5.70;1.00
1602;DHT22;794;48.592;9.634;2024-02-23T17:12:43;3.20;1.00
1602;DHT22;794;48.592;9.634;2024-02-23T17:20:08;5.50;1.00
1602;DHT22;794;48.592;9.634;2024-02-23T17:22:35;5.50;1.00
1602;DHT22;794;48.592;9.634;2024-02-23T17:25:03;5.60;1.00
1602;DHT22;794;48.592;9.634;2024-02-23T17:27:32;5.60;1.00
1602;DHT22;794;48.592;9.634;2024-02-23T17:30:00;5.60;1.00
1602;DHT22;794;48.592;9.634;2024-02-23T17:32:27;6.80;1.00
1602;DHT22;794;48.592;9.634;2024-02-23T17:39:50;5.40;1.00
1602;DHT22;794;48.592;9.634;2024-02-23T17:44:46;5.40;1.00
1602;DHT22;794;48.592;9.634;2024-02-23T17:54:34;5.10;1.00
1602;DHT22;794;48.592;9.634;2024-02-23T17:57:01;5.30;1.00
1602;DHT22;794;48.592;9.634;2024-02-23T17:59:28;4.90;1.00
1602;DHT22;794;48.592;9.634;2024-02-23T18:01:56;5.30;1.00
1602;DHT22;794;48.592;9.634;2024-02-23T18:16:42;4.80;1.00
1602;DHT22;794;48.592;9.634;2024-02-23T18:19:11;4.80;1.00
1602;DHT22;794;48.592;9.634;2024-02-23T18:24:06;4.60;1.00
1602;DHT22;794;48.592;9.634;2024-02-23T18:26:33;4.50;1.00
1602;DHT22;794;48.592;9.634;2024-02-23T18:29:00;4.40;1.00
1602;DHT22;794;48.592;9.634;2024-02-23T18:31:27;4.40;1.00
1602;DHT22;794;48.592;9.634;2024-02-23T18:33:54;4.50;1.00
1602;DHT22;794;48.592;9.634;2024-02-23T18:36:22;4.50;1.00
1602;DHT22;794;48.592;9.634;2024-02-23T18:38:49;4.20;1.00
1602;DHT22;794;48.592;9.634;2024-02-23T18:46:12;4.10;1.00
1602;DHT22;794;48.592;9.634;2024-02-23T18:48:39;4.20;1.00
1602;DHT22;794;48.592;9.634;2024-02-23T18:51:22;4.20;1.00
1602;DHT22;794;48.592;9.634;2024-02-23T18:53:49;4.20;1.00
1602;DHT22;794;48.592;9.634;2024-02-23T18:56:16;4.10;1.00
1602;DHT22;794;48.592;9.634;2024-02-23T18:58:43;3.60;1.00
1602;DHT22;794;48.592;9.634;2024-02-23T19:01:10;3.50;1.00
1602;DHT22;794;48.592;9.634;2024-02-23T19:06:05;3.60;1.00
1602;DHT22;794;48.592;9.634;2024-02-23T19:08:33;3.50;1.00
1602;DHT22;794;48.592;9.634;2024-02-23T19:13:28;3.30;1.00
1602;DHT22;794;48.592;9.634;2024-02-23T19:15:56;4.60;1.00
1602;DHT22;794;48.592;9.634;2024-02-23T19:18:23;2.90;1.00
1602;DHT22;794;48.592;9.634;2024-02-23T19:25:46;2.70;1.00
1602;DHT22;794;48.592;9.634;2024-02-23T19:28:13;2.90;1.00
1602;DHT22;794;48.592;9.634;2024-02-23T19:33:09;2.90;1.00
1602;DHT22;794;48.592;9.634;2024-02-23T19:35:36;2.80;1.00
1602;DHT22;794;48.592;9.634;2024-02-23T19:38:03;2.70;1.00
1602;DHT22;794;48.592;9.634;2024-02-23T19:40:31;4.80;1.00
1602;DHT22;794;48.592;9.634;2024-02-23T19:42:59;2.70;1.00
1602;DHT22;794;48.592;9.634;2024-02-23T19:50:21;2.30;1.00
1602;DHT22;794;48.592;9.634;2024-02-23T19:55:15;2.30;1.00
1602;DHT22;794;48.592;9.634;2024-02-23T19:57:42;2.10;1.00
1602;DHT22;794;48.592;9.634;2024-02-23T20:00:11;3.20;1.00
1602;DHT22;794;48.592;9.634;2024-02-23T20:02:38;2.10;1.00
1602;DHT22;794;48.592;9.634;2024-02-23T20:05:06;1.70;1.00
1602;DHT22;794;48.592;9.634;2024-02-23T20:07:33;2.10;1.00
1602;DHT22;794;48.592;9.634;2024-02-23T20:10:00;2.10;1.00
1602;DHT22;794;48.592;9.634;2024-02-23T20:12:27;2.50;1.00
1602;DHT22;794;48.592;9.634;2024-02-23T20:14:54;1.90;1.00
1602;DHT22;794;48.592;9.634;2024-02-23T20:17:23;2.00;1.00
1602;DHT22;794;48.592;9.634;2024-02-23T20:19:50;2.00;1.00
1602;DHT22;794;48.592;9.634;2024-02-23T20:22:17;2.10;1.00
1602;DHT22;794;48.592;9.634;2024-02-23T20:24:44;2.00;1.00
1602;DHT22;794;48.592;9.634;2024-02-23T20:27:11;3.20;1.00
1602;DHT22;794;48.592;9.634;2024-02-23T20:29:38;1.80;1.00
1602;DHT22;794;48.592;9.634;2024-02-23T20:32:05;2.10;1.00
1602;DHT22;794;48.592;9.634;2024-02-23T20:34:34;2.00;1.00
1602;DHT22;794;48.592;9.634;2024-02-23T20:41:56;2.00;1.00
1602;DHT22;794;48.592;9.634;2024-02-23T20:44:23;4.00;1.00
1602;DHT22;794;48.592;9.634;2024-02-23T20:46:50;3.20;1.00
1602;DHT22;794;48.592;9.634;2024-02-23T20:49:17;2.10;1.00
1602;DHT22;794;48.592;9.634;2024-02-23T20:51:45;2.10;1.00
1602;DHT22;794;48.592;9.634;2024-02-23T20:54:14;2.40;1.00
1602;DHT22;794;48.592;9.634;2024-02-23T20:56:41;1.80;1.00
1602;DHT22;794;48.592;9.634;2024-02-23T20:59:08;1.70;1.00
1602;DHT22;794;48.592;9.634;2024-02-23T21:01:35;2.10;1.00
1602;DHT22;794;48.592;9.634;2024-02-23T21:04:02;2.00;1.00
1602;DHT22;794;48.592;9.634;2024-02-23T21:08:58;1.60;1.00
1602;DHT22;794;48.592;9.634;2024-02-23T21:11:25;2.00;1.00
1602;DHT22;794;48.592;9.634;2024-02-23T21:13:53;1.90;1.00
1602;DHT22;794;48.592;9.634;2024-02-23T21:16:21;1.80;1.00
1602;DHT22;794;48.592;9.634;2024-02-23T21:18:48;1.60;1.00
1602;DHT22;794;48.592;9.634;2024-02-23T21:21:15;1.20;1.00
1602;DHT22;794;48.592;9.634;2024-02-23T21:23:46;1.80;1.00
1602;DHT22;794;48.592;9.634;2024-02-23T21:26:14;2.90;1.00
1602;DHT22;794;48.592;9.634;2024-02-23T21:28:41;4.00;1.00
1602;DHT22;794;48.592;9.634;2024-02-23T21:31:08;1.50;1.00
1602;DHT22;794;48.592;9.634;2024-02-23T21:33:35;1.20;1.00
1602;DHT22;794;48.592;9.634;2024-02-23T21:36:02;1.70;1.00
1602;DHT22;794;48.592;9.634;2024-02-23T21:38:29;1.20;1.00
1602;DHT22;794;48.592;9.634;2024-02-23T21:40:55;1.40;1.00
1602;DHT22;794;48.592;9.634;2024-02-23T21:43:25;1.50;1.00
1602;DHT22;794;48.592;9.634;2024-02-23T21:45:52;1.40;1.00
1602;DHT22;794;48.592;9.634;2024-02-23T21:48:18;1.90;1.00
1602;DHT22;794;48.592;9.634;2024-02-23T21:50:45;1.30;1.00
1602;DHT22;794;48.592;9.634;2024-02-23T21:53:12;1.50;1.00
1602;DHT22;794;48.592;9.634;2024-02-23T21:55:39;1.20;1.00
1602;DHT22;794;48.592;9.634;2024-02-23T21:58:06;1.40;1.00
1602;DHT22;794;48.592;9.634;2024-02-23T22:00:34;1.60;1.00
1602;DHT22;794;48.592;9.634;2024-02-23T22:03:02;0.50;1.00
1602;DHT22;794;48.592;9.634;2024-02-23T22:05:30;1.50;1.00
1602;DHT22;794;48.592;9.634;2024-02-23T22:07:57;1.50;1.00
1602;DHT22;794;48.592;9.634;2024-02-23T22:10:24;1.30;1.00
1602;DHT22;794;48.592;9.634;2024-02-23T22:12:51;1.90;1.00
1602;DHT22;794;48.592;9.634;2024-02-23T22:15:18;1.30;1.00
1602;DHT22;794;48.592;9.634;2024-02-23T22:17:47;1.20;1.00
1602;DHT22;794;48.592;9.634;2024-02-23T22:20:14;1.20;1.00
1602;DHT22;794;48.592;9.634;2024-02-23T22:22:41;2.00;1.00
1602;DHT22;794;48.592;9.634;2024-02-23T22:25:08;1.10;1.00
1602;DHT22;794;48.592;9.634;2024-02-23T22:27:35;1.10;1.00
1602;DHT22;794;48.592;9.634;2024-02-23T22:30:33;1.10;1.00
1602;DHT22;794;48.592;9.634;2024-02-23T22:33:01;1.30;1.00
1602;DHT22;794;48.592;9.634;2024-02-23T22:35:28;1.20;1.00
1602;DHT22;794;48.592;9.634;2024-02-23T22:37:55;1.00;1.00
1602;DHT22;794;48.592;9.634;2024-02-23T22:40:23;1.30;1.00
1602;DHT22;794;48.592;9.634;2024-02-23T22:42:51;1.30;1.00
1602;DHT22;794;48.592;9.634;2024-02-23T22:45:18;2.90;1.00
1602;DHT22;794;48.592;9.634;2024-02-23T22:47:45;0.90;1.00
1602;DHT22;794;48.592;9.634;2024-02-23T22:50:13;1.10;1.00
1602;DHT22;794;48.592;9.634;2024-02-23T22:52:41;0.90;1.00
1602;DHT22;794;48.592;9.634;2024-02-23T22:55:08;1.00;1.00
1602;DHT22;794;48.592;9.634;2024-02-23T22:57:35;0.90;1.00
1602;DHT22;794;48.592;9.634;2024-02-23T23:00:02;1.00;1.00
1602;DHT22;794;48.592;9.634;2024-02-23T23:02:29;0.90;1.00
1602;DHT22;794;48.592;9.634;2024-02-23T23:04:56;0.80;1.00
1602;DHT22;794;48.592;9.634;2024-02-23T23:07:24;0.90;1.00
1602;DHT22;794;48.592;9.634;2024-02-23T23:09:51;0.80;1.00
1602;DHT22;794;48.592;9.634;2024-02-23T23:12:18;0.80;1.00
1602;DHT22;794;48.592;9.634;2024-02-23T23:14:45;1.00;1.00
1602;DHT22;794;48.592;9.634;2024-02-23T23:17:11;0.70;1.00
1602;DHT22;794;48.592;9.634;2024-02-23T23:19:41;0.80;1.00
1602;DHT22;794;48.592;9.634;2024-02-23T23:22:10;1.00;1.00
1602;DHT22;794;48.592;9.634;2024-02-23T23:24:38;0.80;1.00
1602;DHT22;794;48.592;9.634;2024-02-23T23:27:05;0.80;1.00
1602;DHT22;794;48.592;9.634;2024-02-23T23:29:32;0.80;1.00
1602;DHT22;794;48.592;9.634;2024-02-23T23:31:59;0.40;1.00
1602;DHT22;794;48.592;9.634;2024-02-23T23:34:26;0.60;1.00
1602;DHT22;794;48.592;9.634;2024-02-23T23:36:53;0.60;1.00
1602;DHT22;794;48.592;9.634;2024-02-23T23:39:20;0.70;1.00
1602;DHT22;794;48.592;9.634;2024-02-23T23:41:48;0.50;1.00
1602;DHT22;794;48.592;9.634;2024-02-23T23:44:16;0.80;1.00
1602;DHT22;794;48.592;9.634;2024-02-23T23:46:43;0.80;1.00
1602;DHT22;794;48.592;9.634;2024-02-23T23:52:30;0.50;1.00
1602;DHT22;794;48.592;9.634;2024-02-23T23:54:57;0.50;1.00
1602;DHT22;794;48.592;9.634;2024-02-23T23:57:26;0.60;1.00
1602;DHT22;794;48.592;9.634;2024-02-23T23:59:53;0.60;1.00
